aviador You're here:

KJXN Decoded Metar

JACKSON/REYNOLDS in MI, USA
Report Time2017-11-24 08:56:00
UTC Time2017-11-24 09:12:03
Flight Rules vfr VFR
Wind190° at 05 kt
W.Decomp.*RWY 24: 3.5 kt HW 3.5 kt LCW
RWY 14: 2.9 kt HW 4.1 kt RCW
W.Rank190° ranks 11
Current wind is below 190° avg. (7.8)
Visibility9999 m
Phenomena:N/A
Clouds:N/A
Expected CloudBase > 2,800 ft AGL from Temp-Dew spread
CeilingNone
Temp01°C (ISA -12)
Dew Point-6°C (60% RH)
AAT-3.5°C
QNH1011 hPa
Density Alt-335 ft
Elevation1,001 ft
Report Wrong Elevation
Raw Report
KJXN 240856Z AUTO 19005KT 10SM CLR 01/M06 A2986 RMK AO2 SLP121
T00111056 58013=

Extra information for KJXN:More info

Metar Taf Metar & Taf Last 4 Metars F.Rules Stats Wind Profile Meteogram Temp Stats Airport Information Weather charts Add Link Nearby VenuesMetar ALERT Operation Metar Decoded Social comments

AIRNAV info for KJXN